Citadel — PBOK — position and weather

sailwx.info

Track history (hours):
 
Tides and Currents Weather Stations Pressure Air Temp Water Temp Dewpoint Dewpoint Depression Visibility Wind Speed Wind Dir Waves Ship Positions

Citadel

Last reported at 2015-Jul-31 01:32 UTC. Time now 2015-Aug-02 04:20 UTC.
Position N 39°25' W 009°49'.

Length 111 m; draft 4 m.

Type: Cargo ship. MMSI: 245977000.

Date/timePositionNaut miles runAvg speedWind from/ knotsBaromVisibWave heightAir tempDewpointWater temp
2015-Jul-31 01:32N 39°25' W 009°49'1010.0
2015-Jul-31 00:33N 39°16' W 009°50'1010.2
2015-Jul-30 23:33N 39°05' W 009°50'10 9.9
2015-Jul-30 22:33N 38°55' W 009°50'1010.5
2015-Jul-30 21:33N 38°45' W 009°50'9 8.7
2015-Jul-30 20:33N 38°37' W 009°45'10 9.8
2015-Jul-30 19:33N 38°36' W 009°32'10 9.6
2015-Jul-30 18:33N 38°39' W 009°20'1212.4
2015-Jul-30 17:33N 38°44' W 009°06'0 0.0
2015-Jul-30 16:33N 38°44' W 009°06'0 0.0
2015-Jul-30 15:30N 38°44' W 009°06'0 0.0
2015-Jul-30 14:27N 38°44' W 009°06'0 0.0
2015-Jul-30 13:32N 38°44' W 009°06'0 0.0
2015-Jul-30 12:29N 38°44' W 009°06'0 0.0
2015-Jul-30 11:32N 38°44' W 009°06'0 0.0
2015-Jul-30 10:28N 38°44' W 009°06'0 0.0
2015-Jul-30 09:31N 38°44' W 009°06'0 0.0
2015-Jul-30 08:33N 38°44' W 009°06'0 0.0
2015-Jul-30 07:33N 38°44' W 009°06'0 0.0
2015-Jul-30 06:32N 38°44' W 009°06'0 0.0
2015-Jul-30 05:32N 38°44' W 009°06'0 0.0
2015-Jul-30 04:32N 38°44' W 009°06'0 0.0
2015-Jul-30 03:31N 38°44' W 009°06'0 0.0
2015-Jul-30 02:31N 38°44' W 009°06'0 0.0
2015-Jul-30 01:33N 38°44' W 009°06'0 0.0
2015-Jul-30 00:33N 38°44' W 009°06'0 0.0
2015-Jul-29 23:32N 38°44' W 009°06'0 0.0
2015-Jul-29 22:29N 38°44' W 009°06'0 0.0
2015-Jul-29 21:32N 38°44' W 009°06'0 0.0
2015-Jul-29 20:31N 38°44' W 009°06'0 0.0
2015-Jul-29 19:33N 38°44' W 009°06'7 7.1
2015-Jul-29 18:33N 38°41' W 009°14'7 7.5
2015-Jul-29 17:34N 38°39' W 009°23'1 1.3
2015-Jul-29 16:33N 38°40' W 009°24'0 0.0
2015-Jul-29 15:32N 38°40' W 009°24'0 0.1
2015-Jul-29 14:11N 38°40' W 009°24'0 0.0
2015-Jul-29 12:25N 38°40' W 009°24'0 0.0
2015-Jul-29 11:16N 38°40' W 009°24'0 0.0
2015-Jul-29 08:32N 38°40' W 009°24'0 0.0
2015-Jul-29 06:31N 38°40' W 009°24'0 0.0
2015-Jul-29 05:31N 38°40' W 009°24'0 0.0
2015-Jul-29 04:31N 38°40' W 009°24'0 0.0
2015-Jul-29 03:33N 38°40' W 009°24'0 0.0
2015-Jul-29 02:33N 38°40' W 009°24'0 0.0
2015-Jul-29 01:32N 38°40' W 009°24'0 0.0
2015-Jul-29 00:32N 38°40' W 009°24'0 0.0
2015-Jul-28 23:31N 38°40' W 009°24'0 0.0
2015-Jul-28 22:31N 38°40' W 009°24'0 0.0
2015-Jul-28 21:28N 38°40' W 009°24'0 0.0
2015-Jul-28 20:33N 38°40' W 009°24'0 0.0
2015-Jul-28 19:33N 38°40' W 009°24'0 0.0
2015-Jul-28 18:32N 38°40' W 009°24'0 0.0
2015-Jul-28 17:32N 38°40' W 009°24'0 0.0
2015-Jul-28 16:28N 38°40' W 009°24'0 0.0
2015-Jul-28 15:28N 38°40' W 009°24'0 0.0
2015-Jul-28 14:31N 38°40' W 009°24'0 0.0
2015-Jul-28 13:33N 38°40' W 009°24'0 0.0
2015-Jul-28 10:11N 38°40' W 009°24'0 0.0
2015-Jul-28 09:19N 38°40' W 009°24'0 0.0
2015-Jul-28 08:28N 38°40' W 009°24'0 0.0
2015-Jul-28 06:33N 38°40' W 009°24'0 0.1
2015-Jul-28 05:33N 38°40' W 009°24'0 0.0
2015-Jul-28 04:32N 38°40' W 009°24'1 0.7
2015-Jul-28 03:33N 38°40' W 009°25'8 8.4
2015-Jul-28 02:33N 38°39' W 009°36'7 7.4
2015-Jul-28 01:34N 38°38' W 009°45'8 8.0
2015-Jul-28 00:33N 38°36' W 009°55'6 6.5
2015-Jul-27 23:33N 38°37' W 010°03'8 8.0
2015-Jul-27 22:34N 38°45' W 010°05'8 8.1
2015-Jul-27 21:33N 38°53' W 010°05'8 7.7
2015-Jul-27 20:34N 39°01' W 010°05'8 7.8
2015-Jul-27 19:34N 39°08' W 010°05'8 7.9
2015-Jul-27 18:33N 39°16' W 010°05'9 9.0
2015-Jul-27 17:33N 39°25' W 010°05'58 9.5
2015-Jul-27 11:27N 40°23' W 010°05'  
2015-Jul-24 09:23N 50°33' E 000°07'1113.1
2015-Jul-24 08:33N 50°36' E 000°23'1312.6
2015-Jul-24 07:33N 50°41' E 000°41'1212.0
2015-Jul-24 06:31N 50°48' E 000°57'1111.1
2015-Jul-24 05:33N 50°55' E 001°10'1010.1
2015-Jul-24 04:33N 51°02' E 001°22'1010.1
2015-Jul-24 03:33N 51°08' E 001°34'1111.1
2015-Jul-24 02:33N 51°18' E 001°42'1312.9
2015-Jul-24 01:33N 51°31' E 001°43'1313.0
2015-Jul-24 00:33N 51°44' E 001°44'1312.9
2015-Jul-23 23:33N 51°57' E 001°44'1212.4
2015-Jul-23 22:33N 52°10' E 001°46'1211.8
2015-Jul-23 21:33N 52°21' E 001°49'1010.4
2015-Jul-23 20:33N 52°32' E 001°50'5 4.7
2015-Jul-23 19:33N 52°35' E 001°44'0 0.0
2015-Jul-23 18:33N 52°35' E 001°44'0 0.0
2015-Jul-23 17:33N 52°35' E 001°44'0 0.0
2015-Jul-23 16:33N 52°35' E 001°44'0 0.0
2015-Jul-23 15:33N 52°35' E 001°44'0 0.0
2015-Jul-23 14:33N 52°35' E 001°44'0 0.0
2015-Jul-23 13:33N 52°35' E 001°44'0 0.0
2015-Jul-23 12:33N 52°35' E 001°44'0 0.0
2015-Jul-23 11:33N 52°35' E 001°44'0 0.0
2015-Jul-23 10:33N 52°35' E 001°44'0 0.0
2015-Jul-23 09:33N 52°35' E 001°44'0 0.0
2015-Jul-23 08:33N 52°35' E 001°44'0 0.0
2015-Jul-23 07:33N 52°35' E 001°44'0 0.0
2015-Jul-23 06:33N 52°35' E 001°44'0 0.0
2015-Jul-23 05:33N 52°35' E 001°44'0 0.0
2015-Jul-23 04:33N 52°35' E 001°44'0 0.0
2015-Jul-23 03:33N 52°35' E 001°44'0 0.0
2015-Jul-23 02:33N 52°35' E 001°44'0 0.0
2015-Jul-23 01:33N 52°35' E 001°44'0 0.0
2015-Jul-23 00:34N 52°35' E 001°44'1 1.0
2015-Jul-22 23:34N 52°35' E 001°46'10 9.6
2015-Jul-22 22:34N 52°25' E 001°50'1212.4
2015-Jul-22 21:33N 52°13' E 001°46'1413.6
2015-Jul-22 20:33N 52°01' E 001°37'1212.2
2015-Jul-22 19:33N 51°56' E 001°19'7 7.0
2015-Jul-22 18:33N 52°01' E 001°11'2 1.5
2015-Jul-22 17:29N 52°02' E 001°09'0 0.0
2015-Jul-22 16:32N 52°02' E 001°09'0 0.0
2015-Jul-22 15:31N 52°02' E 001°09'0 0.0
2015-Jul-22 14:31N 52°02' E 001°09'0 0.0
2015-Jul-22 13:34N 52°02' E 001°09'0 0.0
2015-Jul-22 12:33N 52°02' E 001°09'0 0.0
2015-Jul-22 11:33N 52°02' E 001°09'0 0.0
2015-Jul-22 10:32N 52°02' E 001°09'0 0.0
2015-Jul-22 09:32N 52°02' E 001°09'0 0.0
2015-Jul-22 08:31N 52°02' E 001°09'0 0.0
2015-Jul-22 07:28N 52°02' E 001°09'0 0.0
2015-Jul-22 06:33N 52°02' E 001°09'0 0.0
2015-Jul-22 05:33N 52°02' E 001°09'0 0.0
2015-Jul-22 04:33N 52°02' E 001°09'0 0.0
2015-Jul-22 03:32N 52°02' E 001°09'0 0.0
2015-Jul-22 02:32N 52°02' E 001°09'0 0.0
2015-Jul-22 01:31N 52°02' E 001°09'0 0.0
2015-Jul-22 00:31N 52°02' E 001°09'0 0.0
2015-Jul-21 23:33N 52°02' E 001°09'0 0.0
2015-Jul-21 22:33N 52°02' E 001°09'0 0.0
2015-Jul-21 21:33N 52°02' E 001°09'0 0.0
2015-Jul-21 20:32N 52°02' E 001°09'0 0.0
2015-Jul-21 19:26N 52°02' E 001°09'0 0.0
2015-Jul-21 18:31N 52°02' E 001°09'0 0.0
2015-Jul-21 17:31N 52°02' E 001°09'0 0.0
2015-Jul-21 16:33N 52°02' E 001°09'0 0.0
2015-Jul-21 15:30N 52°02' E 001°09'0 0.0
2015-Jul-21 14:33N 52°02' E 001°09'0 0.0
2015-Jul-21 13:29N 52°02' E 001°09'0 0.0
2015-Jul-21 12:32N 52°02' E 001°09'0 0.0
2015-Jul-21 11:25N 52°02' E 001°09'0 0.0
2015-Jul-21 10:31N 52°02' E 001°09'0 0.0
2015-Jul-21 09:33N 52°02' E 001°09'0 0.0
2015-Jul-21 08:33N 52°02' E 001°09'0 0.0
2015-Jul-21 07:33N 52°02' E 001°09'0 0.0
2015-Jul-21 06:33N 52°02' E 001°09'0 0.0
2015-Jul-21 05:33N 52°02' E 001°09'0 0.0
2015-Jul-21 04:33N 52°02' E 001°09'0 0.0
2015-Jul-21 03:33N 52°02' E 001°09'0 0.0
2015-Jul-21 02:33N 52°02' E 001°09'0 0.0
2015-Jul-21 01:33N 52°02' E 001°09'  
Track history (hours):
 
Tides and Currents Weather Stations Pressure Air Temp Water Temp Dewpoint Dewpoint Depression Visibility Wind Speed Wind Dir Waves Ship Positions

Citadel

Last reported at 2015-Jul-31 01:32 UTC. Time now 2015-Aug-02 04:20 UTC.
Position N 39°25' W 009°49'.

Length 111 m; draft 4 m.

Type: Cargo ship. MMSI: 245977000.

Date/timePositionNaut miles runAvg speedWind from/ knotsBaromVisibWave heightAir tempDewpointWater temp
2015-Jul-31 01:32N 39°25' W 009°49'1010.0
2015-Jul-31 00:33N 39°16' W 009°50'1010.2
2015-Jul-30 23:33N 39°05' W 009°50'10 9.9
2015-Jul-30 22:33N 38°55' W 009°50'1010.5
2015-Jul-30 21:33N 38°45' W 009°50'9 8.7
2015-Jul-30 20:33N 38°37' W 009°45'10 9.8
2015-Jul-30 19:33N 38°36' W 009°32'10 9.6
2015-Jul-30 18:33N 38°39' W 009°20'1212.4
2015-Jul-30 17:33N 38°44' W 009°06'0 0.0
2015-Jul-30 16:33N 38°44' W 009°06'0 0.0
2015-Jul-30 15:30N 38°44' W 009°06'0 0.0
2015-Jul-30 14:27N 38°44' W 009°06'0 0.0
2015-Jul-30 13:32N 38°44' W 009°06'0 0.0
2015-Jul-30 12:29N 38°44' W 009°06'0 0.0
2015-Jul-30 11:32N 38°44' W 009°06'0 0.0
2015-Jul-30 10:28N 38°44' W 009°06'0 0.0
2015-Jul-30 09:31N 38°44' W 009°06'0 0.0
2015-Jul-30 08:33N 38°44' W 009°06'0 0.0
2015-Jul-30 07:33N 38°44' W 009°06'0 0.0
2015-Jul-30 06:32N 38°44' W 009°06'0 0.0
2015-Jul-30 05:32N 38°44' W 009°06'0 0.0
2015-Jul-30 04:32N 38°44' W 009°06'0 0.0
2015-Jul-30 03:31N 38°44' W 009°06'0 0.0
2015-Jul-30 02:31N 38°44' W 009°06'0 0.0
2015-Jul-30 01:33N 38°44' W 009°06'0 0.0
2015-Jul-30 00:33N 38°44' W 009°06'0 0.0
2015-Jul-29 23:32N 38°44' W 009°06'0 0.0
2015-Jul-29 22:29N 38°44' W 009°06'0 0.0
2015-Jul-29 21:32N 38°44' W 009°06'0 0.0
2015-Jul-29 20:31N 38°44' W 009°06'0 0.0
2015-Jul-29 19:33N 38°44' W 009°06'7 7.1
2015-Jul-29 18:33N 38°41' W 009°14'7 7.5
2015-Jul-29 17:34N 38°39' W 009°23'1 1.3
2015-Jul-29 16:33N 38°40' W 009°24'0 0.0
2015-Jul-29 15:32N 38°40' W 009°24'0 0.1
2015-Jul-29 14:11N 38°40' W 009°24'0 0.0
2015-Jul-29 12:25N 38°40' W 009°24'0 0.0
2015-Jul-29 11:16N 38°40' W 009°24'0 0.0
2015-Jul-29 08:32N 38°40' W 009°24'0 0.0
2015-Jul-29 06:31N 38°40' W 009°24'0 0.0
2015-Jul-29 05:31N 38°40' W 009°24'0 0.0
2015-Jul-29 04:31N 38°40' W 009°24'0 0.0
2015-Jul-29 03:33N 38°40' W 009°24'0 0.0
2015-Jul-29 02:33N 38°40' W 009°24'0 0.0
2015-Jul-29 01:32N 38°40' W 009°24'0 0.0
2015-Jul-29 00:32N 38°40' W 009°24'0 0.0
2015-Jul-28 23:31N 38°40' W 009°24'0 0.0
2015-Jul-28 22:31N 38°40' W 009°24'0 0.0
2015-Jul-28 21:28N 38°40' W 009°24'0 0.0
2015-Jul-28 20:33N 38°40' W 009°24'0 0.0
2015-Jul-28 19:33N 38°40' W 009°24'0 0.0
2015-Jul-28 18:32N 38°40' W 009°24'0 0.0
2015-Jul-28 17:32N 38°40' W 009°24'0 0.0
2015-Jul-28 16:28N 38°40' W 009°24'0 0.0
2015-Jul-28 15:28N 38°40' W 009°24'0 0.0
2015-Jul-28 14:31N 38°40' W 009°24'0 0.0
2015-Jul-28 13:33N 38°40' W 009°24'0 0.0
2015-Jul-28 10:11N 38°40' W 009°24'0 0.0
2015-Jul-28 09:19N 38°40' W 009°24'0 0.0
2015-Jul-28 08:28N 38°40' W 009°24'0 0.0
2015-Jul-28 06:33N 38°40' W 009°24'0 0.1
2015-Jul-28 05:33N 38°40' W 009°24'0 0.0
2015-Jul-28 04:32N 38°40' W 009°24'1 0.7
2015-Jul-28 03:33N 38°40' W 009°25'8 8.4
2015-Jul-28 02:33N 38°39' W 009°36'7 7.4
2015-Jul-28 01:34N 38°38' W 009°45'8 8.0
2015-Jul-28 00:33N 38°36' W 009°55'6 6.5
2015-Jul-27 23:33N 38°37' W 010°03'8 8.0
2015-Jul-27 22:34N 38°45' W 010°05'8 8.1
2015-Jul-27 21:33N 38°53' W 010°05'8 7.7
2015-Jul-27 20:34N 39°01' W 010°05'8 7.8
2015-Jul-27 19:34N 39°08' W 010°05'8 7.9
2015-Jul-27 18:33N 39°16' W 010°05'9 9.0
2015-Jul-27 17:33N 39°25' W 010°05'58 9.5
2015-Jul-27 11:27N 40°23' W 010°05'  
2015-Jul-24 09:23N 50°33' E 000°07'1113.1
2015-Jul-24 08:33N 50°36' E 000°23'1312.6
2015-Jul-24 07:33N 50°41' E 000°41'1212.0
2015-Jul-24 06:31N 50°48' E 000°57'1111.1
2015-Jul-24 05:33N 50°55' E 001°10'1010.1
2015-Jul-24 04:33N 51°02' E 001°22'1010.1
2015-Jul-24 03:33N 51°08' E 001°34'1111.1
2015-Jul-24 02:33N 51°18' E 001°42'1312.9
2015-Jul-24 01:33N 51°31' E 001°43'1313.0
2015-Jul-24 00:33N 51°44' E 001°44'1312.9
2015-Jul-23 23:33N 51°57' E 001°44'1212.4
2015-Jul-23 22:33N 52°10' E 001°46'1211.8
2015-Jul-23 21:33N 52°21' E 001°49'1010.4
2015-Jul-23 20:33N 52°32' E 001°50'5 4.7
2015-Jul-23 19:33N 52°35' E 001°44'0 0.0
2015-Jul-23 18:33N 52°35' E 001°44'0 0.0
2015-Jul-23 17:33N 52°35' E 001°44'0 0.0
2015-Jul-23 16:33N 52°35' E 001°44'0 0.0
2015-Jul-23 15:33N 52°35' E 001°44'0 0.0
2015-Jul-23 14:33N 52°35' E 001°44'0 0.0
2015-Jul-23 13:33N 52°35' E 001°44'0 0.0
2015-Jul-23 12:33N 52°35' E 001°44'0 0.0
2015-Jul-23 11:33N 52°35' E 001°44'0 0.0
2015-Jul-23 10:33N 52°35' E 001°44'0 0.0
2015-Jul-23 09:33N 52°35' E 001°44'0 0.0
2015-Jul-23 08:33N 52°35' E 001°44'0 0.0
2015-Jul-23 07:33N 52°35' E 001°44'0 0.0
2015-Jul-23 06:33N 52°35' E 001°44'0 0.0
2015-Jul-23 05:33N 52°35' E 001°44'0 0.0
2015-Jul-23 04:33N 52°35' E 001°44'0 0.0
2015-Jul-23 03:33N 52°35' E 001°44'0 0.0
2015-Jul-23 02:33N 52°35' E 001°44'0 0.0
2015-Jul-23 01:33N 52°35' E 001°44'0 0.0
2015-Jul-23 00:34N 52°35' E 001°44'1 1.0
2015-Jul-22 23:34N 52°35' E 001°46'10 9.6
2015-Jul-22 22:34N 52°25' E 001°50'1212.4
2015-Jul-22 21:33N 52°13' E 001°46'1413.6
2015-Jul-22 20:33N 52°01' E 001°37'1212.2
2015-Jul-22 19:33N 51°56' E 001°19'7 7.0
2015-Jul-22 18:33N 52°01' E 001°11'2 1.5
2015-Jul-22 17:29N 52°02' E 001°09'0 0.0
2015-Jul-22 16:32N 52°02' E 001°09'0 0.0
2015-Jul-22 15:31N 52°02' E 001°09'0 0.0
2015-Jul-22 14:31N 52°02' E 001°09'0 0.0
2015-Jul-22 13:34N 52°02' E 001°09'0 0.0
2015-Jul-22 12:33N 52°02' E 001°09'0 0.0
2015-Jul-22 11:33N 52°02' E 001°09'0 0.0
2015-Jul-22 10:32N 52°02' E 001°09'0 0.0
2015-Jul-22 09:32N 52°02' E 001°09'0 0.0
2015-Jul-22 08:31N 52°02' E 001°09'0 0.0
2015-Jul-22 07:28N 52°02' E 001°09'0 0.0
2015-Jul-22 06:33N 52°02' E 001°09'0 0.0
2015-Jul-22 05:33N 52°02' E 001°09'0 0.0
2015-Jul-22 04:33N 52°02' E 001°09'0 0.0
2015-Jul-22 03:32N 52°02' E 001°09'0 0.0
2015-Jul-22 02:32N 52°02' E 001°09'0 0.0
2015-Jul-22 01:31N 52°02' E 001°09'0 0.0
2015-Jul-22 00:31N 52°02' E 001°09'0 0.0
2015-Jul-21 23:33N 52°02' E 001°09'0 0.0
2015-Jul-21 22:33N 52°02' E 001°09'0 0.0
2015-Jul-21 21:33N 52°02' E 001°09'0 0.0
2015-Jul-21 20:32N 52°02' E 001°09'0 0.0
2015-Jul-21 19:26N 52°02' E 001°09'0 0.0
2015-Jul-21 18:31N 52°02' E 001°09'0 0.0
2015-Jul-21 17:31N 52°02' E 001°09'0 0.0
2015-Jul-21 16:33N 52°02' E 001°09'0 0.0
2015-Jul-21 15:30N 52°02' E 001°09'0 0.0
2015-Jul-21 14:33N 52°02' E 001°09'0 0.0
2015-Jul-21 13:29N 52°02' E 001°09'0 0.0
2015-Jul-21 12:32N 52°02' E 001°09'0 0.0
2015-Jul-21 11:25N 52°02' E 001°09'0 0.0
2015-Jul-21 10:31N 52°02' E 001°09'0 0.0
2015-Jul-21 09:33N 52°02' E 001°09'0 0.0
2015-Jul-21 08:33N 52°02' E 001°09'0 0.0
2015-Jul-21 07:33N 52°02' E 001°09'0 0.0
2015-Jul-21 06:33N 52°02' E 001°09'0 0.0
2015-Jul-21 05:33N 52°02' E 001°09'0 0.0
2015-Jul-21 04:33N 52°02' E 001°09'0 0.0
2015-Jul-21 03:33N 52°02' E 001°09'0 0.0
2015-Jul-21 02:33N 52°02' E 001°09'0 0.0
2015-Jul-21 01:33N 52°02' E 001°09'  

Dump ship's entire track history